ADDS METAR Data INFO
IDs: Format: Raw Decoded Include TAF

Data at: 2051 UTC 24 Jun 2018

KECS 242035Z AUTO 33011G18KT 10SM -RA SCT018 13/09 A3007 RMK AO2 LTG DSNT S
KECS 242015Z AUTO 33013G21KT 10SM SCT018 15/10 A3007 RMK AO2 LTG DSNT N AND S
KECS 241955Z AUTO 33009G18KT 10SM SCT018 15/10 A3006 RMK AO2 LTG DSNT S AND SW
KECS 241935Z AUTO 32007G16KT 10SM CLR 15/09 A3007 RMK AO2
KECS 241915Z AUTO 33011KT 10SM CLR 14/09 A3008 RMK AO2
KECS 241855Z AUTO 34011G16KT 10SM SCT017 SCT022 14/09 A3008 RMK AO2 LTG DSNT S
KECS 241835Z AUTO 34013G19KT 10SM SCT017 14/10 A3008 RMK AO2 LTG DSNT NE
KECS 241815Z AUTO 33012G18KT 10SM CLR 14/10 A3008 RMK AO2 LTG DSNT S
KECS 241755Z AUTO 34009G16KT 10SM SCT070 13/10 A3008 RMK AO2 LTG DSNT NE
KECS 241735Z AUTO 35010G18KT 10SM SCT070 12/10 A3006 RMK AO2 LTG DSNT N E AND SW
KECS 241715Z AUTO 36012G20KT 10SM -DZ SCT009 12/10 A3006 RMK AO2 LTG DSNT N AND SW
KECS 241655Z AUTO 36013G22KT 10SM -RA BKN007 OVC013 11/10 A3004 RMK AO2 LTG DSNT N AND E
KECS 241635Z AUTO 35019G22KT 10SM RA SCT009 BKN014 OVC021 11/10 A3004 RMK AO2 LTG DSNT N AND E
KECS 241615Z AUTO 36017G20KT 7SM RA BKN016 OVC021 11/10 A3004 RMK AO2 LTG DSNT E AND S
KECS 241555Z AUTO 35010G23KT 5SM +RA BKN013 OVC020 11/10 A3006 RMK AO2 LTG DSNT SE
KECS 241535Z AUTO 34013KT 5SM +RA BKN014 OVC019 11/10 A3006 RMK AO2 LTG DSNT ALQS
KECS 241515Z AUTO 28012KT 7SM VCTSRA SCT007 BKN014 OVC018 11/10 A3008 RMK AO2 LTG DSNT N E AND S
KECS 241455Z AUTO 26006KT 10SM -RA BKN011 OVC014 11/10 A3007 RMK AO2 LTG DSNT SE AND NW
KECS 241435Z AUTO 29010KT 10SM RA BKN011 OVC020 11/10 A3006 RMK AO2
KECS 241415Z AUTO 29005G19KT 10SM SCT009 BKN018 OVC050 11/10 A3006 RMK AO2 LTG DSNT ALQS
KECS 241355Z AUTO 27013G23KT 10SM VCTS SCT018 BKN034 OVC042 11/10 A3004 RMK AO2 LTG DSNT E THRU S
KECS 241335Z AUTO 31012G20KT 10SM OVC034 12/09 A3002 RMK AO2 LTG DSNT NW
KECS 241315Z AUTO 32013G19KT 10SM SCT032 BKN060 12/08 A3000 RMK AO2 LTG DSNT NW
KECS 241255Z AUTO 33010G19KT 10SM VCTS SCT060 SCT085 12/08 A3000 RMK AO2 LTG DSNT SW
KECS 241235Z AUTO 33010G16KT 10SM VCTS SCT060 SCT070 BKN085 12/09 A2999 RMK AO2 LTG DSNT S THRU NW
KECS 241215Z AUTO 34013G19KT 10SM VCTS OVC060 12/09 A2999 RMK AO2 LTG DSNT S THRU NW
KECS 241155Z AUTO 34014G18KT 10SM TS BKN060 BKN080 BKN120 12/09 A2999 RMK AO2 LTG DSNT S THRU NW
KECS 241135Z AUTO 36009G17KT 10SM VCTS SCT050 SCT065 SCT080 12/10 A2997 RMK AO2 LTG DSNT ALQS
KECS 241115Z AUTO 35011G16KT 10SM SCT039 SCT049 BKN055 12/10 A2997 RMK AO2 LTG DSNT S AND SW
KECS 241055Z AUTO 34010G15KT 10SM SCT035 BKN060 BKN075 12/11 A2997 RMK AO2 LTG DSNT SW
KECS 241035Z AUTO 35007G15KT 10SM VCTS SCT075 SCT110 11/10 A2995 RMK AO2 LTG DSNT SW AND NW
KECS 241015Z AUTO 33011KT 10SM SCT110 12/10 A2994 RMK AO2 LTG DSNT SW
KECS 240955Z AUTO 34012G16KT 10SM SCT110 12/10 A2995 RMK AO2 LTG DSNT SW AND W
KECS 240935Z AUTO 35009KT 10SM CLR 12/11 A2995 RMK AO2 LTG DSNT SW AND W
KECS 240915Z AUTO 36008KT 10SM CLR 12/11 A2995 RMK AO2 LTG DSNT W AND NW
KECS 240855Z AUTO 34006KT 10SM CLR 11/10 A2995 RMK AO2
KECS 240835Z AUTO 00000KT 10SM SCT060 SCT080 11/10 A2995 RMK AO2 LTG DSNT W
KECS 240815Z AUTO 00000KT 10SM SCT060 BKN070 BKN080 11/11 A2997 RMK AO2
KECS 240755Z AUTO 00000KT 10SM SCT070 11/10 A2996 RMK AO2
KECS 240735Z AUTO 05003KT 10SM SCT050 11/10 A2996 RMK AO2
KECS 240715Z AUTO 35003KT 10SM CLR 12/09 A2996 RMK AO2
KECS 240655Z AUTO 32003KT 10SM CLR 12/10 A2994 RMK AO2
KECS 240635Z AUTO 34005KT 10SM CLR 12/10 A2993 RMK AO2 LTG DSNT SW AND NW
KECS 240615Z AUTO 32004KT 10SM CLR 11/11 A2994 RMK AO2
KECS 240555Z AUTO 32004G08KT 10SM CLR 12/11 A2994 RMK AO2 LTG DSNT SW
KECS 240535Z AUTO 00000KT 10SM CLR 11/10 A2994 RMK AO2
KECS 240515Z AUTO 34003KT 10SM CLR 11/11 A2994 RMK AO2
KECS 240455Z AUTO 28010KT 10SM CLR 12/10 A2995 RMK AO2
KECS 240435Z AUTO 36003KT 10SM CLR 12/10 A2993 RMK AO2
KECS 240415Z AUTO 36007G16KT 10SM CLR 12/10 A2993 RMK AO2 LTG DSNT NE
KECS 240355Z AUTO 36007KT 10SM CLR 12/11 A2994 RMK AO2
KECS 240335Z AUTO 30010KT 10SM CLR 12/11 A2991 RMK AO2 LTG DSNT NE
KECS 240315Z AUTO 05005KT 10SM CLR 13/09 A2990 RMK AO2 LTG DSNT NW THRU NE
KECS 240255Z AUTO 18004KT 10SM SCT009 SCT018 SCT070 13/08 A2991 RMK AO2 LTG DSNT N AND NE
KECS 240235Z AUTO 07014KT 10SM -VCTSRA SCT007 BKN013 BKN020 13/10 A2990 RMK AO2 LTG DSNT N THRU E
KECS 240215Z AUTO 00000KT 7SM TSRA BKN015 OVC032 13/10 A2995 RMK AO2 LTG DSNT N THRU E
KECS 240155Z AUTO 30007KT 10SM -VCTSRA SCT012 BKN017 OVC045 13/10 A2995 RMK AO2 LTG DSNT ALQS
KECS 240135Z AUTO 26018G26KT 10SM -TSRA SCT012 BKN037 OVC060 13/08 A2993 RMK AO2 LTG DSNT ALQS
KECS 240115Z AUTO 24022G30KT 10SM -TSRA SCT011 SCT020 BKN060 15/11 A2992 RMK AO2 LTG DSNT ALQS
KECS 240055Z AUTO 31009KT 10SM TS CLR 20/10 A2988 RMK AO2 LTG DSNT S THRU W
KECS 240035Z AUTO 30008KT 10SM CLR 20/11 A2987 RMK AO2 LTG DSNT SE THRU W
KECS 240015Z AUTO 30010KT 10SM CLR 21/09 A2986 RMK AO2 LTG DSNT S THRU W
KECS 232355Z AUTO 29007KT 10SM CLR 21/08 A2983 RMK AO2 LTG DSNT SE THRU W
KECS 232335Z AUTO 28005KT 10SM CLR 22/08 A2984 RMK AO2 LTG DSNT SW
KECS 232315Z AUTO 30009G14KT 10SM CLR 22/07 A2985 RMK AO2 LTG DSNT S AND SW
KECS 232255Z AUTO 35009KT 322V022 10SM CLR 22/07 A2984 RMK AO2 LTG DSNT SW
KECS 232235Z AUTO 33008G14KT 292V012 10SM SCT065 SCT080 22/07 A2984 RMK AO2
KECS 232215Z AUTO 33009G15KT 292V352 10SM SCT065 23/07 A2983 RMK AO2
KECS 232155Z AUTO 33012G18KT 10SM CLR 24/07 A2982 RMK AO2 LTG DSNT S
KECS 232135Z AUTO 34009G15KT 302V012 10SM CLR 23/06 A2982 RMK AO2
KECS 232115Z AUTO 30008KT 10SM CLR 23/06 A2982 RMK AO2
KECS 232055Z AUTO 29006G14KT 10SM CLR 23/05 A2983 RMK AO2 LTG DSNT N
KECS 232035Z AUTO 31011KT 10SM CLR 23/06 A2983 RMK AO2 LTG DSNT E AND W
KECS 232015Z AUTO 31009G16KT 292V002 10SM CLR 23/07 A2984 RMK AO2
KECS 231955Z AUTO 34010G19KT 10SM CLR 23/07 A2985 RMK AO2
KECS 231935Z AUTO 33009G17KT 10SM CLR 23/08 A2986 RMK AO2 LTG DSNT N AND NE
KECS 231915Z AUTO 35010G16KT 10SM CLR 22/08 A2986 RMK AO2
KECS 231855Z AUTO 33012G15KT 302V002 10SM CLR 22/08 A2987 RMK AO2
KECS 231835Z AUTO 35012G18KT 10SM CLR 22/08 A2987 RMK AO2
KECS 231815Z AUTO 33010G18KT 292V352 10SM CLR 22/08 A2987 RMK AO2
KECS 231755Z AUTO 33012KT 302V002 10SM CLR 21/08 A2987 RMK AO2
KECS 231735Z AUTO 33011KT 10SM CLR 21/08 A2987 RMK AO2
KECS 231715Z AUTO 32010KT 10SM CLR 21/08 A2987 RMK AO2
KECS 231655Z AUTO 32009KT 282V352 10SM SCT050 21/08 A2987 RMK AO2
KECS 231635Z AUTO 33011G16KT 10SM CLR 21/08 A2987 RMK AO2
KECS 231615Z AUTO 33012G22KT 10SM CLR 21/08 A2987 RMK AO2
KECS 231555Z AUTO 32010KT 292V012 10SM CLR 20/08 A2987 RMK AO2
KECS 231535Z AUTO 33013G20KT 10SM CLR 20/08 A2987 RMK AO2
KECS 231515Z AUTO 34011G15KT 10SM CLR 20/08 A2988 RMK AO2
KECS 231455Z AUTO 34010KT 10SM CLR 18/08 A2988 RMK AO2
KECS 231435Z AUTO 33008G14KT 10SM CLR 18/08 A2988 RMK AO2
KECS 231415Z AUTO 33003KT 10SM CLR 17/10 A2988 RMK AO2
KECS 231355Z AUTO 00000KT 10SM CLR 15/11 A2987 RMK AO2
KECS 231335Z AUTO 00000KT 10SM CLR 14/10 A2987 RMK AO2
KECS 231315Z AUTO 22003KT 10SM CLR 13/10 A2987 RMK AO2
KECS 231255Z AUTO 03006KT 10SM CLR 12/10 A2987 RMK AO2
KECS 231235Z AUTO 00000KT 10SM CLR 11/10 A2987 RMK AO2
KECS 231215Z AUTO 02008KT 10SM CLR 11/10 A2987 RMK AO2
KECS 231155Z AUTO 05003KT 10SM CLR 10/09 A2987 RMK AO2
KECS 231135Z AUTO 22003KT 10SM CLR 10/09 A2987 RMK AO2
KECS 231115Z AUTO 21004KT 10SM CLR 10/08 A2987 RMK AO2
KECS 231055Z AUTO 33003KT 10SM CLR 11/10 A2987 RMK AO2
KECS 231035Z AUTO 34008KT 312V022 10SM CLR 12/08 A2987 RMK AO2
KECS 231015Z AUTO 01007G15KT 10SM CLR 12/08 A2987 RMK AO2
KECS 230955Z AUTO 01007KT 10SM CLR 12/08 A2988 RMK AO2
KECS 230935Z AUTO 36007KT 10SM CLR 12/09 A2988 RMK AO2
KECS 230915Z AUTO 02011KT 10SM CLR 11/10 A2989 RMK AO2
KECS 230855Z AUTO 01007KT 10SM CLR 11/10 A2989 RMK AO2